createdAt,value
2018-11-25T00:00:49.201Z,55.63
2018-11-25T00:05:05.441Z,47.23
2018-11-25T00:09:20.061Z,38.20
2018-11-25T00:13:29.031Z,38.63
2018-11-25T00:17:43.545Z,43.80
2018-11-25T00:21:54.257Z,40.20
2018-11-25T00:26:01.978Z,36.20
2018-11-25T00:30:13.626Z,32.88
2018-11-25T00:34:24.470Z,39.10
2018-11-25T00:38:39.742Z,47.80
2018-11-25T00:42:52.351Z,40.07
2018-11-25T00:47:03.202Z,37.00
2018-11-25T00:51:33.189Z,47.13
2018-11-25T00:55:43.270Z,44.40
2018-11-25T00:59:55.084Z,50.47
2018-11-25T01:04:02.203Z,38.83
2018-11-25T01:08:14.206Z,34.00
2018-11-25T01:12:30.778Z,34.58
2018-11-25T01:16:40.350Z,36.23
2018-11-25T01:21:01.242Z,38.03
2018-11-25T01:25:11.452Z,31.33
2018-11-25T01:29:23.514Z,34.05
2018-11-25T01:33:38.430Z,32.77
2018-11-25T01:37:46.097Z,40.87
2018-11-25T01:42:00.853Z,42.58
2018-11-25T01:46:13.289Z,40.45
2018-11-25T01:50:27.113Z,30.40
2018-11-25T01:54:40.507Z,31.57
2018-11-25T01:59:11.406Z,27.77
2018-11-25T02:03:18.326Z,29.37
2018-11-25T02:07:26.098Z,27.53
2018-11-25T02:11:39.988Z,34.30
2018-11-25T02:15:58.464Z,29.57
2018-11-25T02:20:11.894Z,33.57
2018-11-25T02:24:26.924Z,34.38
2018-11-25T02:28:43.931Z,36.83
2018-11-25T02:32:54.372Z,33.87
2018-11-25T02:37:06.594Z,35.27
2018-11-25T02:41:30.830Z,34.92
2018-11-25T02:45:44.897Z,35.13
2018-11-25T02:49:56.986Z,37.13
2018-11-25T02:54:08.614Z,33.07
2018-11-25T02:58:16.745Z,36.80
2018-11-25T03:02:27.997Z,32.75
2018-11-25T03:06:41.100Z,33.57
2018-11-25T03:10:52.973Z,35.67
2018-11-25T03:15:07.611Z,36.33
2018-11-25T03:19:18.888Z,36.73
2018-11-25T03:23:31.103Z,41.88
2018-11-25T03:27:48.184Z,38.10
2018-11-25T03:31:55.324Z,41.20
2018-11-25T03:36:09.509Z,41.10
2018-11-25T03:40:20.107Z,40.20
2018-11-25T03:44:33.942Z,33.83
2018-11-25T03:48:49.479Z,39.93
2018-11-25T03:52:56.764Z,42.63
2018-11-25T03:57:09.866Z,49.10
2018-11-25T04:01:21.540Z,46.73
2018-11-25T04:05:38.279Z,44.00
2018-11-25T04:09:48.988Z,42.17
2018-11-25T04:14:04.340Z,62.77
2018-11-25T04:18:14.074Z,62.53
2018-11-25T04:22:27.372Z,55.40
2018-11-25T04:26:40.991Z,48.33
2018-11-25T04:30:56.721Z,61.33
2018-11-25T04:35:11.830Z,61.60
2018-11-25T04:39:18.631Z,66.40
2018-11-25T04:43:32.800Z,53.30
2018-11-25T04:47:50.466Z,80.97
2018-11-25T04:51:58.395Z,110.90
2018-11-25T04:56:08.817Z,152.87
2018-11-25T05:00:19.599Z,114.97
2018-11-25T05:09:03.084Z,70.30
2018-11-25T05:13:12.379Z,55.67
2018-11-25T05:17:21.939Z,102.90
2018-11-25T05:21:32.185Z,72.53
2018-11-25T05:25:43.522Z,76.27
2018-11-25T05:29:59.308Z,98.40
2018-11-25T05:34:08.058Z,102.07
2018-11-25T05:38:25.559Z,92.17
2018-11-25T05:42:40.364Z,105.67
2018-11-25T05:46:55.209Z,107.03
2018-11-25T05:51:03.761Z,93.87
2018-11-25T05:55:13.855Z,85.90
2018-11-25T05:59:25.091Z,71.53
2018-11-25T06:03:37.802Z,84.13
2018-11-25T06:07:55.621Z,67.45
2018-11-25T06:12:06.798Z,72.50
2018-11-25T06:16:16.873Z,72.10
2018-11-25T06:20:30.865Z,62.35
2018-11-25T06:24:44.157Z,93.87
2018-11-25T06:29:01.013Z,107.03
2018-11-25T06:33:10.741Z,109.87
2018-11-25T06:37:24.380Z,102.75
2018-11-25T06:41:36.621Z,93.10
2018-11-25T06:45:49.008Z,68.80
2018-11-25T06:50:00.019Z,100.13
2018-11-25T06:54:09.029Z,94.53
2018-11-25T06:58:25.246Z,96.60
2018-11-25T07:02:35.942Z,86.10
2018-11-25T07:06:44.825Z,114.67
2018-11-25T07:10:58.645Z,91.53
2018-11-25T07:15:11.221Z,70.87
2018-11-25T07:19:27.148Z,59.43
2018-11-25T07:23:39.299Z,57.20
2018-11-25T07:27:47.260Z,58.23
2018-11-25T07:31:59.837Z,55.57
2018-11-25T07:36:07.552Z,54.50
2018-11-25T07:40:18.627Z,50.83
2018-11-25T07:44:30.797Z,58.33
2018-11-25T07:48:50.594Z,52.40
2018-11-25T07:53:02.656Z,50.13
2018-11-25T07:57:12.657Z,57.23
2018-11-25T08:01:20.035Z,55.70
2018-11-25T08:05:35.345Z,52.97
2018-11-25T08:09:49.918Z,47.60
2018-11-25T08:14:00.519Z,50.93
2018-11-25T08:18:21.479Z,43.53
2018-11-25T08:22:37.193Z,39.47
2018-11-25T08:26:49.255Z,38.80
2018-11-25T08:31:02.309Z,36.73
2018-11-25T08:35:14.929Z,38.73
2018-11-25T08:39:28.477Z,33.57
2018-11-25T08:43:41.203Z,38.83
2018-11-25T08:47:49.655Z,38.83
2018-11-25T08:51:58.986Z,32.23
2018-11-25T08:56:10.200Z,34.93
2018-11-25T09:00:28.516Z,43.87
2018-11-25T09:04:41.657Z,38.57
2018-11-25T09:08:55.606Z,47.67
2018-11-25T09:13:05.240Z,51.13
2018-11-25T09:17:17.379Z,48.52
2018-11-25T09:21:31.721Z,45.83
2018-11-25T09:25:40.813Z,43.53
2018-11-25T09:29:50.432Z,48.67
2018-11-25T09:34:03.227Z,44.10
2018-11-25T09:38:13.547Z,42.90
2018-11-25T09:42:26.792Z,48.70
2018-11-25T09:46:42.735Z,42.77
2018-11-25T09:50:51.338Z,40.23
2018-11-25T09:54:58.992Z,42.27
2018-11-25T09:59:14.485Z,44.47
2018-11-25T13:10:21.882Z,62.87
2018-11-25T13:14:39.702Z,57.10
2018-11-25T13:18:55.100Z,55.43
2018-11-25T13:23:03.531Z,54.33
2018-11-25T13:27:13.676Z,56.97
2018-11-25T13:31:24.754Z,55.33
2018-11-25T13:35:41.106Z,55.73
2018-11-25T13:39:51.154Z,49.97
2018-11-25T13:44:03.474Z,55.27
2018-11-25T13:48:16.518Z,52.57
2018-11-25T13:52:27.179Z,52.33
2018-11-25T13:56:44.250Z,54.23
2018-11-25T14:01:16.727Z,50.13
2018-11-25T14:05:36.390Z,54.55
2018-11-25T14:09:55.579Z,59.90
2018-11-25T14:14:07.001Z,67.27
2018-11-25T14:18:23.728Z,65.62
2018-11-25T14:22:37.604Z,67.97
2018-11-25T14:26:52.770Z,72.43
2018-11-25T14:31:24.373Z,72.83
2018-11-25T14:35:34.623Z,84.15
2018-11-25T14:39:44.688Z,81.03
2018-11-25T14:43:56.395Z,101.83
2018-11-25T14:48:08.790Z,86.80
2018-11-25T15:02:48.035Z,112.73
2018-11-25T15:07:05.032Z,110.20
2018-11-25T15:11:18.084Z,97.12
2018-11-25T15:15:40.860Z,109.83
2018-11-25T15:20:26.998Z,90.87
2018-11-25T15:25:16.009Z,124.40
2018-11-25T15:29:32.517Z,129.87
2018-11-25T15:33:46.218Z,123.50
2018-11-25T15:38:25.408Z,128.47
2018-11-25T15:42:38.131Z,105.37
2018-11-25T15:46:53.474Z,129.17
2018-11-25T15:51:10.329Z,127.40
2018-11-25T15:55:23.619Z,116.40
2018-11-25T15:59:38.655Z,102.30
2018-11-25T16:04:11.167Z,92.00
2018-11-25T16:08:27.972Z,89.50
2018-11-25T16:12:45.124Z,93.27
2018-11-25T16:16:56.042Z,98.03
2018-11-25T16:21:07.622Z,96.30
2018-11-25T16:25:29.197Z,92.33
2018-11-25T16:29:44.278Z,83.40
2018-11-25T16:33:51.763Z,96.53
2018-11-25T16:38:07.164Z,101.87
2018-11-25T16:42:18.813Z,98.47
2018-11-25T16:46:29.325Z,99.85
2018-11-25T16:50:40.317Z,95.50
2018-11-25T16:54:51.083Z,103.67
2018-11-25T16:59:01.891Z,98.47
2018-11-25T17:03:13.073Z,100.53
2018-11-25T17:07:28.351Z,103.47
2018-11-25T17:11:39.539Z,119.30
2018-11-25T17:15:50.560Z,109.80
2018-11-25T17:20:04.501Z,109.53
2018-11-25T17:24:18.549Z,108.50
2018-11-25T17:28:27.480Z,111.43
2018-11-25T17:32:43.794Z,111.73
2018-11-25T17:47:00.606Z,92.37
2018-11-25T17:51:12.930Z,90.60
2018-11-25T17:55:24.864Z,96.43
2018-11-25T17:59:35.673Z,98.22
2018-11-25T18:03:47.398Z,90.80
2018-11-25T18:08:00.156Z,86.17
2018-11-25T18:12:17.027Z,84.35
2018-11-25T18:16:29.898Z,72.70
2018-11-25T18:20:53.904Z,78.93
2018-11-25T18:25:03.944Z,86.30
2018-11-25T18:29:13.757Z,79.43
2018-11-25T18:33:26.568Z,82.30
2018-11-25T18:37:42.114Z,88.53
2018-11-25T18:41:57.665Z,74.20
2018-11-25T18:46:05.139Z,81.90
2018-11-25T18:50:18.843Z,75.73
2018-11-25T18:54:29.051Z,76.75
2018-11-25T18:58:37.513Z,74.67
2018-11-25T19:02:46.853Z,72.17
2018-11-25T19:06:57.753Z,70.80
2018-11-25T19:11:05.546Z,67.93
2018-11-25T19:15:15.414Z,71.95
2018-11-25T19:19:29.990Z,70.63
2018-11-25T19:23:42.030Z,67.60
2018-11-25T19:27:54.451Z,69.20
2018-11-25T19:32:05.664Z,59.83
2018-11-25T19:36:35.667Z,59.27
2018-11-25T19:40:47.208Z,63.30
2018-11-25T19:44:57.106Z,62.17
2018-11-25T20:03:39.105Z,60.83
2018-11-25T20:07:49.427Z,58.37
2018-11-25T20:11:58.395Z,60.17
2018-11-25T20:16:24.918Z,66.40
2018-11-25T20:20:41.417Z,62.73
2018-11-25T20:24:45.986Z,60.97
2018-11-25T20:28:57.634Z,54.57
2018-11-25T20:33:27.138Z,56.57
2018-11-25T20:37:57.687Z,62.57
2018-11-25T20:42:08.570Z,65.37
2018-11-25T20:46:35.703Z,65.47
2018-11-25T20:50:54.126Z,64.90
2018-11-25T20:55:07.341Z,55.87
2018-11-25T20:59:20.928Z,66.73
2018-11-25T21:03:34.100Z,58.77
2018-11-25T21:07:46.723Z,59.70
2018-11-25T21:12:01.154Z,62.20
2018-11-25T21:16:16.757Z,62.23
2018-11-25T21:20:35.842Z,60.35
2018-11-25T21:24:51.444Z,69.00
2018-11-25T21:28:59.963Z,61.70
2018-11-25T21:33:10.035Z,64.20
2018-11-25T21:37:17.377Z,63.70
2018-11-25T21:41:30.251Z,62.50
2018-11-25T21:45:43.130Z,66.97
2018-11-25T21:49:54.284Z,75.77
2018-11-25T21:54:25.249Z,73.33
2018-11-25T21:58:58.957Z,67.80
2018-11-25T22:03:15.492Z,76.30
2018-11-25T22:07:30.845Z,72.10
2018-11-25T22:11:38.369Z,73.10
2018-11-25T22:25:50.116Z,72.17
2018-11-25T22:30:23.677Z,75.73
2018-11-25T22:34:35.705Z,72.50
2018-11-25T22:38:45.963Z,73.17
2018-11-25T22:42:55.660Z,79.67
2018-11-25T22:47:07.492Z,75.00
2018-11-25T22:51:19.271Z,73.37
2018-11-25T22:55:29.038Z,85.00
2018-11-25T22:59:39.845Z,73.80
2018-11-25T23:04:04.229Z,75.57
2018-11-25T23:08:15.409Z,77.00
2018-11-25T23:12:30.780Z,77.37
2018-11-25T23:16:43.451Z,75.17
2018-11-25T23:20:53.782Z,79.70
2018-11-25T23:25:04.936Z,73.17
2018-11-25T23:29:14.911Z,73.80
2018-11-25T23:33:25.711Z,67.75
2018-11-25T23:37:52.847Z,65.87
2018-11-25T23:42:10.143Z,71.20
2018-11-25T23:46:25.723Z,66.77
2018-11-25T23:50:33.103Z,65.97
2018-11-25T23:54:41.716Z,59.27
2018-11-25T23:58:59.683Z,62.40
